Terminal Aerodrome Forecast
Issued by NWS

Home | Current Version | Previous Version | Text Only | Print | Product List | Glossary On
Versions: 1 2 3 4 5 6 7 8 9 10 11 12 13 14 15 16 17 18 19 20 21 22 23
000
FTUS44 KLIX 081424 AAA
TAFGPT
TAF AMD
KGPT 081424Z 0814/0912 03012G20KT P6SM SCT015 OVC040
     FM081500 03012G22KT 2SM -RA BR BKN015 OVC030
     FM081700 03012G22KT P6SM SCT025 OVC040
     FM090200 01012KT P6SM OVC050=

USA.gov is the U.S. government's official web portal to all federal, state and local government web resources and services.